createdAt,value
2023-02-07T00:01:19.986Z,1.91
2023-02-07T00:03:46.453Z,1.69
2023-02-07T00:06:27.254Z,2.35
2023-02-07T00:08:53.878Z,1.48
2023-02-07T00:11:20.780Z,0.21
2023-02-07T00:13:48.412Z,0.03
2023-02-07T00:16:15.337Z,0.00
2023-02-07T00:18:41.786Z,0.32
2023-02-07T00:21:09.946Z,0.45
2023-02-07T00:23:36.830Z,0.00
2023-02-07T00:26:03.727Z,0.00
2023-02-07T00:28:30.319Z,0.00
2023-02-07T00:31:11.165Z,0.00
2023-02-07T00:33:38.456Z,0.00
2023-02-07T00:36:06.340Z,0.00
2023-02-07T00:38:32.883Z,0.00
2023-02-07T00:41:01.362Z,0.00
2023-02-07T00:43:30.286Z,0.00
2023-02-07T00:46:01.221Z,0.00
2023-02-07T00:48:28.311Z,0.00
2023-02-07T00:50:54.748Z,0.00
2023-02-07T00:53:21.348Z,0.00
2023-02-07T00:55:47.714Z,0.00
2023-02-07T00:58:14.083Z,0.00
2023-02-07T01:00:40.673Z,0.00
2023-02-07T01:03:07.025Z,0.00
2023-02-07T01:05:33.380Z,0.00
2023-02-07T01:07:59.795Z,0.00
2023-02-07T01:10:26.149Z,0.00
2023-02-07T01:12:52.776Z,0.00
2023-02-07T01:15:19.456Z,0.00
2023-02-07T01:17:45.899Z,0.00
2023-02-07T01:20:12.363Z,0.00
2023-02-07T01:22:39.300Z,0.00
2023-02-07T01:25:06.635Z,0.00
2023-02-07T01:27:33.364Z,0.00
2023-02-07T01:29:59.769Z,0.00
2023-02-07T01:32:26.274Z,0.00
2023-02-07T01:34:52.623Z,0.00
2023-02-07T01:37:19.246Z,0.00
2023-02-07T01:39:46.996Z,0.00
2023-02-07T01:42:14.371Z,0.00
2023-02-07T01:44:43.762Z,0.00
2023-02-07T01:47:15.008Z,0.00
2023-02-07T01:49:41.349Z,0.00
2023-02-07T01:52:12.753Z,0.00
2023-02-07T01:54:39.825Z,0.00
2023-02-07T01:57:07.950Z,0.00
2023-02-07T01:59:35.858Z,0.00
2023-02-07T02:02:02.893Z,0.00
2023-02-07T02:04:29.248Z,0.00
2023-02-07T02:06:56.007Z,0.00
2023-02-07T02:09:22.613Z,0.00
2023-02-07T02:12:08.071Z,0.00
2023-02-07T02:15:08.669Z,0.00
2023-02-07T02:17:54.929Z,0.00
2023-02-07T02:20:55.557Z,0.00
2023-02-07T02:23:37.377Z,0.00
2023-02-07T02:26:37.518Z,0.00
2023-02-07T02:29:04.426Z,0.00
2023-02-07T02:31:53.069Z,0.00
2023-02-07T02:34:31.754Z,0.00
2023-02-07T02:37:10.390Z,0.00
2023-02-07T02:39:42.574Z,0.00
2023-02-07T02:42:34.790Z,0.00
2023-02-07T02:45:03.808Z,0.00
2023-02-07T02:47:30.639Z,0.00
2023-02-07T02:49:57.028Z,0.00
2023-02-07T02:52:23.714Z,0.00
2023-02-07T02:54:50.043Z,0.00
2023-02-07T02:57:28.684Z,0.00
2023-02-07T03:00:21.903Z,0.00
2023-02-07T03:03:10.504Z,0.00
2023-02-07T03:05:49.130Z,0.00
2023-02-07T03:08:34.434Z,0.00
2023-02-07T03:11:07.771Z,0.00
2023-02-07T03:13:40.334Z,0.00
2023-02-07T03:16:30.963Z,0.00
2023-02-07T03:19:02.270Z,0.00
2023-02-07T03:21:33.892Z,0.00
2023-02-07T03:24:03.812Z,0.00
2023-02-07T03:26:30.188Z,0.00
2023-02-07T03:28:56.698Z,0.00
2023-02-07T03:31:24.070Z,0.00
2023-02-07T03:33:53.045Z,0.00
2023-02-07T03:36:25.117Z,0.00
2023-02-07T03:38:51.498Z,0.00
2023-02-07T03:41:29.855Z,0.00
2023-02-07T03:43:56.268Z,0.00
2023-02-07T03:46:23.122Z,0.00
2023-02-07T03:48:49.567Z,0.00
2023-02-07T03:51:15.938Z,0.00
2023-02-07T03:53:42.285Z,0.00
2023-02-07T03:56:08.911Z,0.00
2023-02-07T03:58:35.277Z,0.00
2023-02-07T04:01:01.651Z,0.00
2023-02-07T04:03:28.233Z,0.00
2023-02-07T04:05:54.705Z,0.00
2023-02-07T04:08:21.083Z,0.00
2023-02-07T04:10:57.408Z,0.00
2023-02-07T04:13:23.774Z,0.00
2023-02-07T04:15:50.177Z,0.00
2023-02-07T04:18:16.832Z,0.00
2023-02-07T04:20:43.306Z,0.00
2023-02-07T04:23:09.689Z,0.00
2023-02-07T04:25:36.370Z,0.00
2023-02-07T04:28:02.905Z,0.00
2023-02-07T04:30:29.313Z,0.00
2023-02-07T04:32:55.704Z,0.00
2023-02-07T04:35:22.053Z,0.00
2023-02-07T04:37:48.441Z,0.00
2023-02-07T04:40:14.857Z,0.00
2023-02-07T04:42:41.202Z,0.00
2023-02-07T04:45:08.019Z,0.00
2023-02-07T04:47:34.583Z,0.00
2023-02-07T04:50:01.027Z,0.00
2023-02-07T04:52:27.376Z,0.00
2023-02-07T04:54:53.754Z,0.00
2023-02-07T04:57:20.086Z,0.00
2023-02-07T04:59:46.446Z,0.00
2023-02-07T05:02:13.021Z,0.00
2023-02-07T05:04:39.383Z,0.00
2023-02-07T05:07:05.782Z,0.00
2023-02-07T05:09:32.187Z,0.00
2023-02-07T05:11:58.645Z,0.00
2023-02-07T05:14:25.182Z,0.00
2023-02-07T05:16:51.823Z,0.00
2023-02-07T05:19:18.251Z,0.00
2023-02-07T05:21:44.598Z,0.00
2023-02-07T05:24:10.967Z,0.00
2023-02-07T05:26:39.374Z,0.00
2023-02-07T05:29:06.644Z,0.00
2023-02-07T05:31:52.016Z,0.00
2023-02-07T05:34:18.408Z,0.00
2023-02-07T05:36:44.762Z,0.00
2023-02-07T05:39:11.341Z,0.00
2023-02-07T05:41:37.689Z,0.00
2023-02-07T05:44:04.045Z,0.00
2023-02-07T05:46:30.572Z,0.00
2023-02-07T05:48:56.928Z,0.00
2023-02-07T05:51:23.357Z,0.00
2023-02-07T05:53:50.278Z,0.00
2023-02-07T05:56:16.631Z,0.00
2023-02-07T05:58:42.996Z,0.00
2023-02-07T06:01:09.546Z,0.00
2023-02-07T06:03:35.918Z,0.00
2023-02-07T06:06:02.297Z,0.00
2023-02-07T06:08:28.707Z,0.00
2023-02-07T06:10:55.078Z,0.00
2023-02-07T06:13:21.430Z,0.00
2023-02-07T06:15:48.255Z,0.00
2023-02-07T06:18:14.629Z,0.00
2023-02-07T06:20:40.970Z,0.00
2023-02-07T06:23:07.342Z,0.00
2023-02-07T06:25:33.702Z,0.00
2023-02-07T06:28:00.797Z,0.00
2023-02-07T06:30:27.241Z,0.00
2023-02-07T06:32:53.623Z,0.00
2023-02-07T06:35:20.125Z,0.00
2023-02-07T06:37:46.770Z,0.00
2023-02-07T06:40:13.116Z,0.00
2023-02-07T06:42:39.490Z,0.00
2023-02-07T06:45:06.138Z,0.00
2023-02-07T06:47:32.490Z,0.00
2023-02-07T06:49:58.887Z,0.00
2023-02-07T06:52:25.453Z,0.00
2023-02-07T06:54:51.794Z,0.00
2023-02-07T06:57:18.160Z,0.00
2023-02-07T06:59:44.612Z,0.00
2023-02-07T07:02:12.084Z,0.00
2023-02-07T07:04:38.459Z,0.00
2023-02-07T07:07:05.145Z,0.00
2023-02-07T07:09:31.547Z,0.00
2023-02-07T07:11:58.251Z,0.00
2023-02-07T07:14:24.910Z,0.00
2023-02-07T07:16:51.506Z,0.00
2023-02-07T07:19:17.865Z,0.00
2023-02-07T07:21:44.476Z,0.00
2023-02-07T07:24:10.838Z,0.00
2023-02-07T07:26:48.832Z,0.00
2023-02-07T07:29:16.164Z,0.00
2023-02-07T07:31:42.542Z,0.00
2023-02-07T07:34:08.923Z,0.00
2023-02-07T07:36:35.499Z,0.00
2023-02-07T07:39:01.939Z,0.00
2023-02-07T07:41:28.323Z,0.00
2023-02-07T07:43:55.378Z,0.00
2023-02-07T07:46:21.824Z,0.00
2023-02-07T07:48:48.243Z,0.00
2023-02-07T07:51:14.840Z,0.00
2023-02-07T07:53:41.182Z,0.00
2023-02-07T07:56:07.517Z,0.00
2023-02-07T07:58:33.939Z,0.00
2023-02-07T08:01:00.396Z,0.00
2023-02-07T08:03:27.088Z,0.00
2023-02-07T08:05:53.564Z,0.00
2023-02-07T08:08:20.000Z,0.00
2023-02-07T08:10:46.744Z,0.00
2023-02-07T08:13:13.199Z,0.00
2023-02-07T08:15:39.577Z,0.00
2023-02-07T08:18:06.166Z,0.00
2023-02-07T08:20:32.902Z,0.00
2023-02-07T08:22:59.321Z,0.00
2023-02-07T08:25:26.390Z,0.00
2023-02-07T08:27:53.378Z,0.00
2023-02-07T08:30:19.939Z,0.00
2023-02-07T08:32:46.415Z,0.00
2023-02-07T08:35:13.089Z,0.73
2023-02-07T08:37:39.562Z,1.37
2023-02-07T08:40:06.422Z,1.95
2023-02-07T08:42:33.092Z,2.97
2023-02-07T08:44:59.535Z,3.52
2023-02-07T08:47:25.909Z,4.11
2023-02-07T08:49:52.320Z,6.84
2023-02-07T08:52:18.763Z,7.83
2023-02-07T08:54:45.134Z,8.52
2023-02-07T08:57:11.710Z,5.91
2023-02-07T08:59:38.052Z,3.20
2023-02-07T09:02:04.634Z,1.70
2023-02-07T09:04:31.046Z,0.20
2023-02-07T09:06:57.643Z,0.00
2023-02-07T09:09:25.091Z,0.00
2023-02-07T09:11:51.462Z,0.00
2023-02-07T09:14:18.148Z,0.00
2023-02-07T09:16:44.606Z,0.00
2023-02-07T09:19:11.197Z,0.00
2023-02-07T09:21:37.652Z,0.00
2023-02-07T09:24:04.575Z,0.00
2023-02-07T09:26:33.167Z,0.00
2023-02-07T09:28:59.651Z,0.00
2023-02-07T09:31:26.152Z,0.00
2023-02-07T09:33:52.632Z,0.00
2023-02-07T09:36:24.358Z,0.00
2023-02-07T09:38:51.569Z,0.00
2023-02-07T09:41:34.008Z,0.00
2023-02-07T09:44:25.727Z,5.68
2023-02-07T09:46:52.518Z,8.61
2023-02-07T09:49:28.122Z,24.13
2023-02-07T09:51:56.528Z,43.91
2023-02-07T09:54:29.044Z,49.28
2023-02-07T09:56:57.071Z,55.87
2023-02-07T09:59:27.072Z,60.54
2023-02-07T10:01:55.943Z,56.60
2023-02-07T10:04:30.445Z,58.43
2023-02-07T10:06:58.004Z,56.20
2023-02-07T10:09:29.428Z,53.72
2023-02-07T10:12:39.339Z,63.73
2023-02-07T10:15:32.536Z,67.33
2023-02-07T10:18:17.581Z,71.29
2023-02-07T10:20:51.644Z,65.78
2023-02-07T10:23:45.399Z,65.99
2023-02-07T10:26:21.848Z,79.78
2023-02-07T10:29:10.007Z,83.08
2023-02-07T10:31:38.429Z,83.74
2023-02-07T10:34:27.588Z,84.89
2023-02-07T10:36:54.419Z,95.60
2023-02-07T10:39:33.320Z,98.54
2023-02-07T10:41:59.715Z,98.49
2023-02-07T10:44:28.534Z,95.81
2023-02-07T10:47:02.505Z,100.00
2023-02-07T10:49:31.667Z,100.00
2023-02-07T10:52:21.812Z,99.85
2023-02-07T10:55:02.137Z,100.00
2023-02-07T10:57:29.065Z,100.00
2023-02-07T11:00:04.699Z,100.00
2023-02-07T11:02:31.669Z,100.00
2023-02-07T11:04:59.665Z,100.00
2023-02-07T11:07:26.212Z,100.00
2023-02-07T11:09:52.767Z,100.00
2023-02-07T11:12:25.237Z,100.00
2023-02-07T11:15:05.918Z,100.00
2023-02-07T11:17:32.307Z,100.00
2023-02-07T11:20:03.016Z,100.00
2023-02-07T11:22:29.447Z,100.00
2023-02-07T11:25:02.038Z,100.00
2023-02-07T11:27:28.387Z,100.00
2023-02-07T11:30:07.405Z,100.00
2023-02-07T11:32:36.185Z,100.00
2023-02-07T11:35:09.318Z,100.00
2023-02-07T11:37:37.033Z,100.00
2023-02-07T11:40:23.765Z,100.00
2023-02-07T11:42:57.693Z,100.00
2023-02-07T11:45:24.123Z,100.00
2023-02-07T11:47:54.046Z,100.00
2023-02-07T11:50:22.439Z,100.00
2023-02-07T11:52:56.696Z,100.00
2023-02-07T11:55:29.944Z,100.00
2023-02-07T11:57:57.616Z,100.00
2023-02-07T12:00:26.096Z,100.00
2023-02-07T12:02:59.471Z,100.00
2023-02-07T12:05:28.312Z,100.00
2023-02-07T12:07:58.913Z,100.00
2023-02-07T12:10:28.577Z,100.00
2023-02-07T12:13:03.327Z,100.00
2023-02-07T12:15:44.334Z,100.00
2023-02-07T12:18:10.668Z,100.00
2023-02-07T12:20:39.921Z,100.00
2023-02-07T12:23:39.264Z,100.00
2023-02-07T12:25:58.243Z,100.00
2023-02-07T12:28:32.985Z,100.00
2023-02-07T12:31:02.210Z,100.00
2023-02-07T12:33:38.261Z,100.00
2023-02-07T12:36:33.096Z,100.00
2023-02-07T12:39:06.878Z,100.00
2023-02-07T12:41:39.822Z,100.00
2023-02-07T12:44:26.179Z,100.00
2023-02-07T12:47:01.086Z,100.00
2023-02-07T12:49:36.592Z,100.00
2023-02-07T12:52:19.782Z,100.00
2023-02-07T12:54:50.611Z,100.00
2023-02-07T12:57:46.395Z,100.00
2023-02-07T13:00:28.004Z,100.00
2023-02-07T13:03:18.750Z,100.00
2023-02-07T13:05:54.396Z,100.00
2023-02-07T13:08:35.738Z,100.00
2023-02-07T13:11:17.720Z,100.00
2023-02-07T13:14:06.626Z,100.00
2023-02-07T13:17:03.374Z,100.00
2023-02-07T13:19:39.627Z,100.00
2023-02-07T13:22:24.220Z,100.00
2023-02-07T13:24:50.581Z,100.00
2023-02-07T13:27:18.784Z,100.00
2023-02-07T13:29:45.425Z,100.00
2023-02-07T13:32:15.304Z,100.00
2023-02-07T13:34:58.260Z,100.00
2023-02-07T13:37:45.937Z,100.00
2023-02-07T13:40:31.145Z,100.00
2023-02-07T13:43:02.956Z,100.00
2023-02-07T13:45:55.770Z,100.00
2023-02-07T13:48:40.851Z,100.00
2023-02-07T13:51:18.316Z,100.00
2023-02-07T13:54:09.364Z,100.00
2023-02-07T13:56:54.954Z,100.00
2023-02-07T13:59:40.121Z,100.00
2023-02-07T14:02:18.462Z,100.00
2023-02-07T14:04:50.892Z,100.00
2023-02-07T14:07:32.015Z,100.00
2023-02-07T14:09:58.952Z,100.00
2023-02-07T14:12:29.928Z,100.00
2023-02-07T14:15:03.597Z,100.00
2023-02-07T14:17:30.308Z,100.00
2023-02-07T14:19:57.547Z,100.00
2023-02-07T14:22:28.074Z,100.00
2023-02-07T14:25:03.557Z,100.00
2023-02-07T14:27:32.950Z,100.00
2023-02-07T14:30:11.638Z,100.00
2023-02-07T14:32:38.672Z,100.00
2023-02-07T14:35:38.259Z,100.00
2023-02-07T14:38:04.585Z,100.00
2023-02-07T14:40:43.343Z,100.00
2023-02-07T14:43:12.808Z,100.00
2023-02-07T14:45:45.476Z,100.00
2023-02-07T14:48:32.852Z,100.00
2023-02-07T14:50:59.451Z,100.00
2023-02-07T14:53:26.253Z,100.00
2023-02-07T14:55:56.549Z,100.00
2023-02-07T14:58:42.902Z,100.00
2023-02-07T15:01:13.638Z,100.00
2023-02-07T15:03:40.061Z,100.00
2023-02-07T15:06:31.604Z,100.00
2023-02-07T15:09:00.137Z,100.00
2023-02-07T15:11:27.388Z,100.00
2023-02-07T15:14:02.900Z,100.00
2023-02-07T15:16:31.323Z,100.00
2023-02-07T15:19:07.902Z,100.00
2023-02-07T15:21:38.868Z,100.00
2023-02-07T15:24:07.435Z,100.00
2023-02-07T15:26:34.497Z,100.00
2023-02-07T15:29:06.068Z,100.00
2023-02-07T15:31:39.894Z,100.00
2023-02-07T15:34:08.510Z,100.00
2023-02-07T15:36:40.596Z,100.00
2023-02-07T15:39:13.230Z,100.00
2023-02-07T15:41:39.604Z,100.00
2023-02-07T15:44:07.791Z,100.00
2023-02-07T15:46:55.448Z,100.00
2023-02-07T15:49:35.345Z,100.00
2023-02-07T15:52:04.833Z,100.00
2023-02-07T15:54:34.884Z,100.00
2023-02-07T15:57:01.725Z,100.00
2023-02-07T15:59:29.101Z,100.00
2023-02-07T16:01:57.032Z,100.00
2023-02-07T16:04:27.124Z,100.00
2023-02-07T16:07:01.455Z,100.00
2023-02-07T16:09:41.736Z,100.00
2023-02-07T16:12:31.090Z,100.00
2023-02-07T16:14:58.833Z,100.00
2023-02-07T16:17:35.858Z,100.00
2023-02-07T16:20:02.216Z,100.00
2023-02-07T16:22:29.875Z,100.00
2023-02-07T16:24:56.229Z,100.00
2023-02-07T16:27:31.556Z,100.00
2023-02-07T16:30:01.174Z,100.00
2023-02-07T16:32:30.026Z,100.00
2023-02-07T16:34:59.980Z,100.00
2023-02-07T16:37:27.815Z,83.46
2023-02-07T16:39:54.213Z,72.98
2023-02-07T16:42:20.590Z,69.31
2023-02-07T16:44:47.067Z,68.97
2023-02-07T16:47:13.923Z,70.66
2023-02-07T16:49:40.401Z,74.14
2023-02-07T16:52:06.784Z,75.94
2023-02-07T16:54:33.151Z,77.90
2023-02-07T16:57:01.455Z,81.16
2023-02-07T16:59:29.068Z,82.84
2023-02-07T17:01:55.457Z,83.70
2023-02-07T17:04:22.036Z,85.18
2023-02-07T17:06:48.395Z,87.46
2023-02-07T17:09:24.775Z,87.71
2023-02-07T17:11:52.116Z,90.58
2023-02-07T17:14:18.650Z,94.94
2023-02-07T17:16:45.134Z,100.00
2023-02-07T17:19:26.369Z,100.00
2023-02-07T17:21:52.873Z,100.00
2023-02-07T17:24:19.363Z,100.00
2023-02-07T17:26:47.360Z,100.00
2023-02-07T17:29:14.508Z,100.00
2023-02-07T17:31:41.276Z,100.00
2023-02-07T17:34:07.767Z,99.59
2023-02-07T17:36:34.332Z,96.69
2023-02-07T17:39:01.063Z,94.42
2023-02-07T17:41:27.521Z,92.76
2023-02-07T17:43:53.923Z,87.08
2023-02-07T17:46:25.530Z,80.22
2023-02-07T17:48:51.931Z,70.24
2023-02-07T17:51:19.747Z,65.59
2023-02-07T17:53:46.679Z,56.03
2023-02-07T17:56:27.433Z,51.47
2023-02-07T17:58:54.797Z,48.90
2023-02-07T18:01:21.639Z,47.62
2023-02-07T18:03:48.689Z,45.85
2023-02-07T18:06:16.110Z,44.98
2023-02-07T18:08:42.778Z,39.85
2023-02-07T18:11:11.468Z,35.86
2023-02-07T18:13:38.576Z,31.52
2023-02-07T18:16:05.685Z,29.86
2023-02-07T18:18:32.075Z,26.80
2023-02-07T18:20:58.436Z,22.05
2023-02-07T18:23:24.814Z,14.61
2023-02-07T18:25:51.351Z,4.12
2023-02-07T18:28:18.173Z,0.84
2023-02-07T18:30:44.755Z,0.00
2023-02-07T18:33:13.362Z,0.00
2023-02-07T18:35:39.798Z,0.00
2023-02-07T18:38:06.227Z,0.00
2023-02-07T18:40:32.586Z,0.00
2023-02-07T18:42:58.947Z,0.00
2023-02-07T18:45:25.336Z,0.00
2023-02-07T18:47:52.159Z,0.00
2023-02-07T18:50:19.711Z,0.00
2023-02-07T18:52:47.210Z,0.00
2023-02-07T18:55:13.669Z,0.00
2023-02-07T18:57:40.024Z,0.00
2023-02-07T19:00:07.419Z,0.00
2023-02-07T19:02:33.811Z,0.00
2023-02-07T19:05:00.477Z,0.00
2023-02-07T19:07:26.863Z,0.00
2023-02-07T19:09:53.297Z,0.00
2023-02-07T19:12:19.655Z,0.00
2023-02-07T19:14:46.076Z,0.00
2023-02-07T19:17:13.927Z,0.00
2023-02-07T19:19:40.279Z,0.00
2023-02-07T19:22:06.635Z,0.00
2023-02-07T19:24:33.069Z,0.00
2023-02-07T19:26:59.467Z,0.00
2023-02-07T19:29:30.614Z,0.00
2023-02-07T19:32:02.166Z,0.00
2023-02-07T19:34:29.011Z,0.00
2023-02-07T19:36:55.485Z,0.00
2023-02-07T19:39:22.113Z,0.00
2023-02-07T19:41:48.650Z,0.00
2023-02-07T19:44:15.010Z,0.00
2023-02-07T19:46:41.444Z,0.00
2023-02-07T19:49:07.823Z,0.00
2023-02-07T19:51:34.233Z,0.00
2023-02-07T19:54:00.709Z,0.00
2023-02-07T19:56:28.538Z,0.00
2023-02-07T19:58:55.284Z,0.00
2023-02-07T20:01:22.461Z,0.00
2023-02-07T20:03:51.056Z,0.00
2023-02-07T20:06:22.517Z,0.00
2023-02-07T20:08:49.173Z,0.00
2023-02-07T20:11:16.711Z,0.00
2023-02-07T20:13:44.960Z,0.00
2023-02-07T20:16:15.975Z,0.00
2023-02-07T20:18:42.518Z,0.00
2023-02-07T20:21:11.987Z,0.00
2023-02-07T20:23:46.710Z,0.00
2023-02-07T20:26:15.199Z,0.00
2023-02-07T20:28:41.807Z,0.00
2023-02-07T20:31:09.148Z,1.38
2023-02-07T20:33:36.268Z,1.81
2023-02-07T20:36:03.015Z,3.95
2023-02-07T20:38:29.464Z,4.05
2023-02-07T20:40:57.347Z,7.27
2023-02-07T20:43:24.124Z,11.13
2023-02-07T20:45:50.503Z,10.45
2023-02-07T20:48:16.966Z,10.17
2023-02-07T20:50:43.367Z,9.15
2023-02-07T20:53:09.942Z,8.47
2023-02-07T20:55:36.609Z,7.57
2023-02-07T20:58:02.984Z,7.05
2023-02-07T21:00:29.435Z,8.01
2023-02-07T21:02:55.891Z,6.04
2023-02-07T21:05:22.256Z,3.32
2023-02-07T21:07:48.660Z,1.53
2023-02-07T21:10:15.089Z,0.00
2023-02-07T21:12:41.470Z,0.00
2023-02-07T21:15:08.311Z,0.00
2023-02-07T21:17:36.667Z,0.00
2023-02-07T21:20:03.666Z,0.00
2023-02-07T21:22:30.312Z,0.00
2023-02-07T21:24:56.660Z,0.00
2023-02-07T21:27:23.002Z,0.00
2023-02-07T21:29:49.385Z,0.00
2023-02-07T21:32:15.736Z,0.00
2023-02-07T21:34:42.229Z,0.00
2023-02-07T21:37:08.739Z,0.00
2023-02-07T21:39:35.147Z,0.00
2023-02-07T21:42:01.586Z,0.00
2023-02-07T21:44:29.331Z,0.00
2023-02-07T21:46:57.141Z,0.00
2023-02-07T21:49:24.037Z,0.00
2023-02-07T21:51:53.319Z,0.00
2023-02-07T21:54:19.695Z,0.00
2023-02-07T21:56:46.157Z,0.00
2023-02-07T21:59:17.403Z,0.00
2023-02-07T22:01:44.401Z,0.00
2023-02-07T22:04:10.980Z,0.00
2023-02-07T22:06:38.433Z,0.00
2023-02-07T22:09:05.380Z,0.00
2023-02-07T22:11:34.693Z,0.00
2023-02-07T22:14:01.266Z,0.00
2023-02-07T22:16:28.662Z,0.00
2023-02-07T22:18:55.946Z,0.00
2023-02-07T22:21:26.740Z,0.00
2023-02-07T22:23:53.718Z,0.00
2023-02-07T22:26:20.261Z,0.00
2023-02-07T22:28:46.854Z,0.00
2023-02-07T22:31:15.655Z,0.00
2023-02-07T22:33:42.461Z,2.39
2023-02-07T22:36:16.225Z,3.18
2023-02-07T22:38:42.699Z,5.76
2023-02-07T22:41:09.130Z,5.79
2023-02-07T22:43:35.813Z,4.01
2023-02-07T22:46:06.429Z,1.68
2023-02-07T22:48:32.919Z,0.00
2023-02-07T22:51:00.242Z,0.00
2023-02-07T22:53:26.924Z,0.00
2023-02-07T22:55:53.314Z,0.00
2023-02-07T22:58:19.929Z,0.00
2023-02-07T23:00:46.341Z,0.00
2023-02-07T23:03:12.761Z,0.00
2023-02-07T23:05:39.596Z,0.00
2023-02-07T23:08:06.571Z,0.00
2023-02-07T23:10:32.972Z,0.00
2023-02-07T23:12:59.971Z,0.00
2023-02-07T23:15:26.323Z,0.00
2023-02-07T23:17:52.687Z,0.00
2023-02-07T23:20:19.085Z,0.00
2023-02-07T23:22:45.457Z,0.00
2023-02-07T23:25:11.933Z,0.00
2023-02-07T23:27:38.528Z,0.00
2023-02-07T23:30:05.403Z,0.00
2023-02-07T23:32:31.833Z,0.00
2023-02-07T23:34:58.200Z,0.00
2023-02-07T23:37:24.612Z,0.00
2023-02-07T23:39:51.032Z,0.00
2023-02-07T23:42:17.429Z,0.00
2023-02-07T23:44:43.817Z,0.00
2023-02-07T23:47:10.180Z,0.00
2023-02-07T23:49:36.630Z,0.00
2023-02-07T23:52:03.007Z,0.00
2023-02-07T23:54:29.345Z,0.00
2023-02-07T23:56:55.905Z,0.00
2023-02-07T23:59:22.290Z,0.00
